createdAt,value
2022-08-16T00:02:23.132Z,1.42
2022-08-16T00:04:52.074Z,1.65
2022-08-16T00:07:21.208Z,1.52
2022-08-16T00:09:50.036Z,1.30
2022-08-16T00:12:21.888Z,1.65
2022-08-16T00:14:52.216Z,1.92
2022-08-16T00:17:25.795Z,1.52
2022-08-16T00:19:55.056Z,2.00
2022-08-16T00:22:24.845Z,1.65
2022-08-16T00:24:54.421Z,1.52
2022-08-16T00:27:24.503Z,1.80
2022-08-16T00:30:00.661Z,1.80
2022-08-16T00:32:32.974Z,1.50
2022-08-16T00:35:04.366Z,1.80
2022-08-16T00:37:57.334Z,1.67
2022-08-16T00:40:34.205Z,1.55
2022-08-16T00:43:05.879Z,1.77
2022-08-16T00:45:57.907Z,2.05
2022-08-16T00:48:31.775Z,1.60
2022-08-16T00:51:12.421Z,1.70
2022-08-16T00:53:44.817Z,1.67
2022-08-16T00:56:56.032Z,2.00
2022-08-16T00:59:04.439Z,1.63
2022-08-16T01:01:33.562Z,1.90
2022-08-16T01:04:06.407Z,1.88
2022-08-16T01:07:02.315Z,2.10
2022-08-16T01:09:33.608Z,2.00
2022-08-16T01:12:08.508Z,1.73
2022-08-16T01:14:41.349Z,1.80
2022-08-16T01:17:12.873Z,2.35
2022-08-16T01:19:43.658Z,1.92
2022-08-16T01:22:48.074Z,2.28
2022-08-16T01:25:07.484Z,2.10
2022-08-16T01:27:38.686Z,1.80
2022-08-16T01:30:19.465Z,1.60
2022-08-16T01:33:01.592Z,1.85
2022-08-16T01:35:35.094Z,2.15
2022-08-16T01:38:19.743Z,1.88
2022-08-16T01:40:52.550Z,1.92
2022-08-16T01:43:21.601Z,2.10
2022-08-16T01:45:57.549Z,1.90
2022-08-16T01:48:29.506Z,1.98
2022-08-16T01:51:08.789Z,1.90
2022-08-16T01:53:44.560Z,2.47
2022-08-16T01:56:25.459Z,1.90
2022-08-16T01:58:55.116Z,1.90
2022-08-16T02:01:26.046Z,1.80
2022-08-16T02:03:58.472Z,1.60
2022-08-16T02:06:45.945Z,2.03
2022-08-16T02:09:17.906Z,1.90
2022-08-16T02:11:53.537Z,2.38
2022-08-16T02:14:26.245Z,2.03
2022-08-16T02:16:56.303Z,1.90
2022-08-16T02:19:58.456Z,2.13
2022-08-16T02:22:33.608Z,2.35
2022-08-16T02:25:09.707Z,2.15
2022-08-16T02:27:40.992Z,2.40
2022-08-16T02:30:37.964Z,2.47
2022-08-16T02:33:00.782Z,2.40
2022-08-16T02:35:31.182Z,2.60
2022-08-16T02:38:01.659Z,2.47
2022-08-16T02:40:39.604Z,2.30
2022-08-16T02:43:11.977Z,2.38
2022-08-16T02:45:40.373Z,2.22
2022-08-16T02:48:29.282Z,2.80
2022-08-16T02:51:06.192Z,2.67
2022-08-16T02:53:40.274Z,2.58
2022-08-16T02:56:14.778Z,2.47
2022-08-16T02:58:45.305Z,2.30
2022-08-16T03:01:24.302Z,2.50
2022-08-16T03:04:39.449Z,2.75
2022-08-16T03:06:56.631Z,2.60
2022-08-16T03:09:25.643Z,2.75
2022-08-16T03:11:57.591Z,2.75
2022-08-16T03:14:27.687Z,2.65
2022-08-16T03:16:59.331Z,2.85
2022-08-16T03:19:48.087Z,2.70
2022-08-16T03:22:19.235Z,2.75
2022-08-16T03:24:57.749Z,2.97
2022-08-16T03:27:30.690Z,2.80
2022-08-16T03:30:01.323Z,2.97
2022-08-16T03:32:30.536Z,2.80
2022-08-16T03:35:00.606Z,2.90
2022-08-16T03:37:29.079Z,2.70
2022-08-16T03:40:02.922Z,2.88
2022-08-16T03:42:31.966Z,3.13
2022-08-16T03:45:03.862Z,2.85
2022-08-16T03:47:34.281Z,2.90
2022-08-16T03:50:03.256Z,3.05
2022-08-16T03:52:32.131Z,2.70
2022-08-16T03:55:00.825Z,2.75
2022-08-16T03:57:32.061Z,2.83
2022-08-16T04:00:20.731Z,3.22
2022-08-16T04:03:07.239Z,3.33
2022-08-16T04:05:37.664Z,3.25
2022-08-16T04:08:23.011Z,3.22
2022-08-16T04:10:54.215Z,3.13
2022-08-16T04:13:59.490Z,3.35
2022-08-16T04:16:26.575Z,2.97
2022-08-16T04:21:32.065Z,3.22
2022-08-16T04:24:01.152Z,3.10
2022-08-16T04:26:31.113Z,2.63
2022-08-16T04:29:14.701Z,3.20
2022-08-16T04:31:56.242Z,2.75
2022-08-16T04:34:26.972Z,3.25
2022-08-16T04:36:56.626Z,2.90
2022-08-16T04:39:45.897Z,3.05
2022-08-16T04:42:14.029Z,3.40
2022-08-16T04:44:53.350Z,3.15
2022-08-16T04:47:25.434Z,3.05
2022-08-16T04:50:00.850Z,3.25
2022-08-16T04:52:34.663Z,3.40
2022-08-16T04:55:06.259Z,3.40
2022-08-16T04:57:35.707Z,3.70
2022-08-16T05:00:31.659Z,3.50
2022-08-16T05:02:58.981Z,3.67
2022-08-16T05:05:30.723Z,3.88
2022-08-16T05:08:28.770Z,4.07
2022-08-16T05:10:52.348Z,4.63
2022-08-16T05:13:40.523Z,3.35
2022-08-16T05:16:11.938Z,3.70
2022-08-16T05:18:47.993Z,3.42
2022-08-16T05:21:16.374Z,3.58
2022-08-16T05:23:55.885Z,3.70
2022-08-16T05:26:28.608Z,3.85
2022-08-16T05:28:57.578Z,3.50
2022-08-16T05:31:29.351Z,3.70
2022-08-16T05:34:01.199Z,3.85
2022-08-16T05:36:36.622Z,3.70
2022-08-16T05:39:06.506Z,3.50
2022-08-16T05:41:45.641Z,4.07
2022-08-16T05:44:22.856Z,3.80
2022-08-16T05:46:54.608Z,3.88
2022-08-16T05:49:25.107Z,4.45
2022-08-16T05:51:55.347Z,5.03
2022-08-16T05:54:26.164Z,4.40
2022-08-16T05:56:55.765Z,4.18
2022-08-16T05:59:24.609Z,3.90
2022-08-16T06:01:55.536Z,3.67
2022-08-16T06:04:35.950Z,3.95
2022-08-16T06:07:09.046Z,3.60
2022-08-16T06:09:52.883Z,3.28
2022-08-16T06:12:26.915Z,4.45
2022-08-16T06:14:59.189Z,3.75
2022-08-16T06:17:43.219Z,3.47
2022-08-16T06:20:23.217Z,3.60
2022-08-16T06:23:02.846Z,3.75
2022-08-16T06:25:36.808Z,3.40
2022-08-16T06:28:09.646Z,4.28
2022-08-16T06:30:43.918Z,3.80
2022-08-16T06:33:22.674Z,3.55
2022-08-16T06:35:54.694Z,3.40
2022-08-16T06:38:32.161Z,3.45
2022-08-16T06:41:01.535Z,4.00
2022-08-16T06:43:30.907Z,3.58
2022-08-16T06:46:00.949Z,3.90
2022-08-16T06:48:33.770Z,3.40
2022-08-16T06:51:04.320Z,3.90
2022-08-16T06:53:35.527Z,3.97
2022-08-16T06:56:14.329Z,3.78
2022-08-16T06:58:51.814Z,4.13
2022-08-16T07:01:42.847Z,3.90
2022-08-16T07:04:10.311Z,3.60
2022-08-16T07:06:43.135Z,4.00
2022-08-16T07:09:12.020Z,4.18
2022-08-16T07:11:47.534Z,4.13
2022-08-16T07:14:25.147Z,4.03
2022-08-16T07:16:55.426Z,4.45
2022-08-16T07:20:03.906Z,3.70
2022-08-16T07:22:37.834Z,4.13
2022-08-16T07:25:05.067Z,4.13
2022-08-16T07:27:33.597Z,4.50
2022-08-16T07:30:02.473Z,4.22
2022-08-16T07:32:33.175Z,4.03
2022-08-16T07:35:03.390Z,3.92
2022-08-16T07:37:33.152Z,3.63
2022-08-16T07:40:01.810Z,3.42
2022-08-16T07:42:39.927Z,4.45
2022-08-16T07:45:10.588Z,4.43
2022-08-16T07:47:39.328Z,4.45
2022-08-16T07:50:57.767Z,4.20
2022-08-16T07:53:01.973Z,3.72
2022-08-16T07:55:45.445Z,4.35
2022-08-16T07:58:18.386Z,4.30
2022-08-16T08:01:05.579Z,4.18
2022-08-16T08:03:42.471Z,3.97
2022-08-16T08:06:12.440Z,4.63
2022-08-16T08:08:50.360Z,4.10
2022-08-16T08:11:21.407Z,4.20
2022-08-16T08:13:50.657Z,4.78
2022-08-16T08:16:19.954Z,4.30
2022-08-16T08:18:56.169Z,4.10
2022-08-16T08:22:00.527Z,3.88
2022-08-16T08:24:21.642Z,3.80
2022-08-16T08:26:50.553Z,3.42
2022-08-16T08:29:22.555Z,4.55
2022-08-16T08:31:54.165Z,4.10
2022-08-16T08:34:23.282Z,4.68
2022-08-16T08:36:54.336Z,3.67
2022-08-16T08:39:24.619Z,3.78
2022-08-16T08:41:53.486Z,3.80
2022-08-16T08:44:28.387Z,4.07
2022-08-16T08:47:00.137Z,4.30
2022-08-16T08:49:46.016Z,4.05
2022-08-16T08:52:34.801Z,4.30
2022-08-16T08:55:11.152Z,3.97
2022-08-16T08:57:41.105Z,3.92
2022-08-16T09:00:13.784Z,4.57
2022-08-16T09:02:44.606Z,4.47
2022-08-16T09:05:16.251Z,4.05
2022-08-16T09:08:00.728Z,3.90
2022-08-16T09:10:32.584Z,4.13
2022-08-16T09:13:02.916Z,3.92
2022-08-16T09:15:33.139Z,3.45
2022-08-16T09:18:26.305Z,3.83
2022-08-16T09:20:58.705Z,4.18
2022-08-16T09:23:28.243Z,4.03
2022-08-16T09:25:57.973Z,4.32
2022-08-16T09:29:16.161Z,3.88
2022-08-16T09:31:15.526Z,3.67
2022-08-16T09:33:44.289Z,4.38
2022-08-16T09:36:32.097Z,4.22
2022-08-16T09:39:03.347Z,3.97
2022-08-16T09:41:33.632Z,3.88
2022-08-16T09:45:09.285Z,4.05
2022-08-16T09:46:57.540Z,3.65
2022-08-16T09:49:36.861Z,4.38
2022-08-16T09:52:06.225Z,3.95
2022-08-16T09:54:37.879Z,4.03
2022-08-16T09:57:12.061Z,4.18
2022-08-16T09:59:42.041Z,3.63
2022-08-16T10:02:27.011Z,3.83
2022-08-16T10:04:56.817Z,3.72
2022-08-16T10:07:25.719Z,3.78
2022-08-16T10:09:56.051Z,3.92
2022-08-16T10:12:44.601Z,3.72
2022-08-16T10:15:17.101Z,3.90
2022-08-16T10:17:59.992Z,4.43
2022-08-16T10:20:30.803Z,4.10
2022-08-16T10:23:05.849Z,3.60
2022-08-16T10:27:17.825Z,3.90
2022-08-16T10:28:28.231Z,3.70
2022-08-16T10:30:59.314Z,3.88
2022-08-16T10:33:29.630Z,3.78
2022-08-16T10:36:03.793Z,3.58
2022-08-16T10:38:33.372Z,4.15
2022-08-16T10:41:07.116Z,4.22
2022-08-16T10:43:37.713Z,3.80
2022-08-16T10:46:40.198Z,3.70
2022-08-16T10:48:55.209Z,3.38
2022-08-16T10:51:33.680Z,3.78
2022-08-16T10:54:28.474Z,3.50
2022-08-16T10:56:58.640Z,3.72
2022-08-16T10:59:38.415Z,3.42
2022-08-16T11:02:58.196Z,3.80
2022-08-16T11:05:11.628Z,3.70
2022-08-16T11:07:45.514Z,3.78
2022-08-16T11:13:57.382Z,3.85
2022-08-16T11:16:25.425Z,3.50
2022-08-16T11:19:06.440Z,3.78
2022-08-16T11:22:39.487Z,3.42
2022-08-16T11:24:40.015Z,4.03
2022-08-16T11:27:32.526Z,3.45
2022-08-16T11:29:59.339Z,3.60
2022-08-16T11:32:32.103Z,3.50
2022-08-16T11:35:14.894Z,3.20
2022-08-16T11:40:38.889Z,2.95
2022-08-16T11:43:10.020Z,3.40
2022-08-16T11:45:38.895Z,3.30
2022-08-16T11:48:14.047Z,3.42
2022-08-16T11:50:43.168Z,3.25
2022-08-16T11:53:12.936Z,3.17
2022-08-16T11:55:44.362Z,3.10
2022-08-16T11:58:14.538Z,3.42
2022-08-16T12:00:51.434Z,2.90
2022-08-16T12:03:34.187Z,3.30
2022-08-16T12:06:04.119Z,3.22
2022-08-16T12:08:33.851Z,3.30
2022-08-16T12:11:02.590Z,3.35
2022-08-16T12:13:31.155Z,3.15
2022-08-16T12:15:59.735Z,3.40
2022-08-16T12:18:30.035Z,3.47
2022-08-16T12:20:58.474Z,3.50
2022-08-16T12:23:28.613Z,3.03
2022-08-16T12:26:01.278Z,3.70
2022-08-16T12:28:55.111Z,3.35
2022-08-16T12:31:23.740Z,3.00
2022-08-16T12:33:54.468Z,3.35
2022-08-16T12:36:26.266Z,3.30
2022-08-16T12:38:58.336Z,3.10
2022-08-16T12:41:27.787Z,3.00
2022-08-16T12:43:57.071Z,3.20
2022-08-16T12:46:30.958Z,3.33
2022-08-16T12:49:00.410Z,2.90
2022-08-16T12:51:57.750Z,3.22
2022-08-16T12:54:20.539Z,3.00
2022-08-16T12:56:50.368Z,2.72
2022-08-16T12:59:20.381Z,3.00
2022-08-16T13:01:50.657Z,3.40
2022-08-16T13:04:31.462Z,3.03
2022-08-16T13:09:32.953Z,2.85
2022-08-16T13:12:19.237Z,2.97
2022-08-16T13:14:49.851Z,3.00
2022-08-16T13:17:19.992Z,3.30
2022-08-16T13:20:08.560Z,3.20
2022-08-16T13:22:37.828Z,2.72
2022-08-16T13:25:07.384Z,3.40
2022-08-16T13:28:03.018Z,2.92
2022-08-16T13:30:36.375Z,3.38
2022-08-16T13:33:12.305Z,2.83
2022-08-16T13:35:43.904Z,2.58
2022-08-16T13:38:25.030Z,3.03
2022-08-16T13:40:56.146Z,2.83
2022-08-16T13:43:26.691Z,3.05
2022-08-16T13:45:55.988Z,3.38
2022-08-16T13:48:25.976Z,3.17
2022-08-16T13:50:56.660Z,3.03
2022-08-16T13:53:25.657Z,3.03
2022-08-16T13:55:59.115Z,3.10
2022-08-16T13:58:37.395Z,2.80
2022-08-16T14:01:17.030Z,3.00
2022-08-16T14:03:45.742Z,2.75
2022-08-16T14:06:15.515Z,2.28
2022-08-16T14:08:58.796Z,2.75
2022-08-16T14:11:34.743Z,2.30
2022-08-16T14:14:06.316Z,2.70
2022-08-16T14:16:35.266Z,2.50
2022-08-16T14:19:03.961Z,2.80
2022-08-16T14:21:34.773Z,2.72
2022-08-16T14:24:16.703Z,2.65
2022-08-16T14:26:52.755Z,2.70
2022-08-16T14:29:21.544Z,2.83
2022-08-16T14:31:54.118Z,2.60
2022-08-16T14:34:25.667Z,3.20
2022-08-16T14:36:55.602Z,2.65
2022-08-16T14:39:24.072Z,2.33
2022-08-16T14:41:53.752Z,2.58
2022-08-16T14:44:26.229Z,2.60
2022-08-16T14:46:55.867Z,2.80
2022-08-16T14:49:25.162Z,2.85
2022-08-16T14:51:54.998Z,2.78
2022-08-16T14:54:27.283Z,3.03
2022-08-16T14:56:58.450Z,2.97
2022-08-16T14:59:27.225Z,2.70
2022-08-16T15:02:00.696Z,2.63
2022-08-16T15:04:33.267Z,2.53
2022-08-16T15:07:18.196Z,2.55
2022-08-16T15:10:00.921Z,2.70
2022-08-16T15:12:33.898Z,2.22
2022-08-16T15:15:04.610Z,2.72
2022-08-16T15:17:42.484Z,2.17
2022-08-16T15:20:23.321Z,2.08
2022-08-16T15:22:56.434Z,2.30
2022-08-16T15:25:27.598Z,2.38
2022-08-16T15:27:58.605Z,2.67
2022-08-16T15:30:48.217Z,2.50
2022-08-16T15:33:18.287Z,2.63
2022-08-16T15:35:50.188Z,2.70
2022-08-16T15:38:57.829Z,2.60
2022-08-16T15:41:08.974Z,2.53
2022-08-16T15:43:41.582Z,2.63
2022-08-16T15:46:54.246Z,2.05
2022-08-16T15:49:13.382Z,3.03
2022-08-16T15:51:44.748Z,2.47
2022-08-16T15:54:29.346Z,2.17
2022-08-16T15:57:04.235Z,2.58
2022-08-16T15:59:49.065Z,2.97
2022-08-16T16:02:27.634Z,2.28
2022-08-16T16:05:00.756Z,2.60
2022-08-16T16:07:30.511Z,2.75
2022-08-16T16:10:00.534Z,2.80
2022-08-16T16:12:53.285Z,2.35
2022-08-16T16:15:19.411Z,3.15
2022-08-16T16:17:51.095Z,2.33
2022-08-16T16:20:21.421Z,2.40
2022-08-16T16:22:50.097Z,2.60
2022-08-16T16:25:20.511Z,2.55
2022-08-16T16:27:55.764Z,2.63
2022-08-16T16:30:37.304Z,2.45
2022-08-16T16:33:20.564Z,2.33
2022-08-16T16:35:55.663Z,2.63
2022-08-16T16:38:28.603Z,2.60
2022-08-16T16:40:58.746Z,2.55
2022-08-16T16:43:31.705Z,2.70
2022-08-16T16:46:02.013Z,2.80
2022-08-16T16:48:34.970Z,2.97
2022-08-16T16:51:09.585Z,2.63
2022-08-16T16:53:41.298Z,2.65
2022-08-16T16:56:27.548Z,2.60
2022-08-16T16:59:01.699Z,2.60
2022-08-16T17:01:41.162Z,2.78
2022-08-16T17:04:27.327Z,2.30
2022-08-16T17:07:10.678Z,2.70
2022-08-16T17:09:44.358Z,2.53
2022-08-16T17:12:25.276Z,2.38
2022-08-16T17:15:03.551Z,2.47
2022-08-16T17:17:59.286Z,2.70
2022-08-16T17:20:21.151Z,2.40
2022-08-16T17:22:54.725Z,2.33
2022-08-16T17:25:24.105Z,2.63
2022-08-16T17:27:53.808Z,2.30
2022-08-16T17:30:29.504Z,2.88
2022-08-16T17:33:13.152Z,2.50
2022-08-16T17:35:45.681Z,9.20
2022-08-16T17:38:32.895Z,8.85
2022-08-16T17:41:12.781Z,5.13
2022-08-16T17:43:44.128Z,3.22
2022-08-16T17:46:51.674Z,2.80
2022-08-16T17:49:02.292Z,2.83
2022-08-16T17:51:30.676Z,3.25
2022-08-16T17:53:59.253Z,3.80
2022-08-16T17:56:27.641Z,3.72
2022-08-16T17:58:57.338Z,3.33
2022-08-16T18:01:27.799Z,2.92
2022-08-16T18:04:06.615Z,3.40
2022-08-16T18:06:37.904Z,3.20
2022-08-16T18:09:06.485Z,3.42
2022-08-16T18:11:41.209Z,3.40
2022-08-16T18:14:13.224Z,3.08
2022-08-16T18:16:41.621Z,2.58
2022-08-16T18:19:10.061Z,2.85
2022-08-16T18:21:56.181Z,2.60
2022-08-16T18:24:25.529Z,2.55
2022-08-16T18:26:55.024Z,3.28
2022-08-16T18:29:24.802Z,3.05
2022-08-16T18:31:53.141Z,2.80
2022-08-16T18:34:21.588Z,3.10
2022-08-16T18:36:50.987Z,2.95
2022-08-16T18:39:22.135Z,3.08
2022-08-16T18:41:52.404Z,2.92
2022-08-16T18:44:29.247Z,2.95
2022-08-16T18:47:01.935Z,2.67
2022-08-16T18:49:30.261Z,2.53
2022-08-16T18:51:59.245Z,2.75
2022-08-16T18:54:29.257Z,2.92
2022-08-16T18:56:58.441Z,3.03
2022-08-16T18:59:30.225Z,5.05
2022-08-16T19:02:00.073Z,3.42
2022-08-16T19:04:56.382Z,3.13
2022-08-16T19:07:22.956Z,3.40
2022-08-16T19:09:59.780Z,3.58
2022-08-16T19:12:38.523Z,3.33
2022-08-16T19:15:14.582Z,3.28
2022-08-16T19:17:44.483Z,3.20
2022-08-16T19:20:16.978Z,3.60
2022-08-16T19:23:04.488Z,3.57
2022-08-16T19:25:46.308Z,3.55
2022-08-16T19:28:33.370Z,3.22
2022-08-16T19:31:05.679Z,3.08
2022-08-16T19:33:34.118Z,3.38
2022-08-16T19:36:03.997Z,3.50
2022-08-16T19:38:32.500Z,3.65
2022-08-16T19:41:00.857Z,3.30
2022-08-16T19:43:29.328Z,3.75
2022-08-16T19:45:57.730Z,3.17
2022-08-16T19:48:26.140Z,3.42
2022-08-16T19:50:54.476Z,3.38
2022-08-16T19:53:24.971Z,3.60
2022-08-16T19:55:54.472Z,3.63
2022-08-16T19:58:23.035Z,3.60
2022-08-16T20:00:52.448Z,3.97
2022-08-16T20:05:53.550Z,3.03
2022-08-16T20:08:22.349Z,3.97
2022-08-16T20:10:52.317Z,3.90
2022-08-16T20:13:22.182Z,4.00
2022-08-16T20:15:51.342Z,4.32
2022-08-16T20:18:25.126Z,4.40
2022-08-16T20:20:54.454Z,3.65
2022-08-16T20:23:25.829Z,4.20
2022-08-16T20:25:56.866Z,4.20
2022-08-16T20:28:40.677Z,3.65
2022-08-16T20:31:13.841Z,4.25
2022-08-16T20:33:43.545Z,3.92
2022-08-16T20:36:16.326Z,4.10
2022-08-16T20:38:47.389Z,3.78
2022-08-16T20:41:18.767Z,3.70
2022-08-16T20:43:47.810Z,3.83
2022-08-16T20:46:18.024Z,3.92
2022-08-16T20:48:46.519Z,3.92
2022-08-16T20:51:14.912Z,4.03
2022-08-16T20:53:44.650Z,3.90
2022-08-16T20:56:13.777Z,4.07
2022-08-16T20:58:43.531Z,4.22
2022-08-16T21:01:11.984Z,4.15
2022-08-16T21:03:40.456Z,3.60
2022-08-16T21:06:09.276Z,4.15
2022-08-16T21:08:52.682Z,4.22
2022-08-16T21:11:23.675Z,4.63
2022-08-16T21:14:00.300Z,4.15
2022-08-16T21:16:30.861Z,4.32
2022-08-16T21:19:00.429Z,3.95
2022-08-16T21:21:33.478Z,3.90
2022-08-16T21:24:05.059Z,4.07
2022-08-16T21:26:39.951Z,4.10
2022-08-16T21:29:11.348Z,4.28
2022-08-16T21:31:45.776Z,4.25
2022-08-16T21:34:14.128Z,4.43
2022-08-16T21:36:44.393Z,4.43
2022-08-16T21:39:15.969Z,4.10
2022-08-16T21:41:44.444Z,4.38
2022-08-16T21:44:15.011Z,4.32
2022-08-16T21:46:43.755Z,4.50
2022-08-16T21:49:12.356Z,4.25
2022-08-16T21:51:40.863Z,4.15
2022-08-16T21:54:09.401Z,4.18
2022-08-16T21:56:37.961Z,4.07
2022-08-16T21:59:10.927Z,3.97
2022-08-16T22:01:42.327Z,4.18
2022-08-16T22:04:36.597Z,4.30
2022-08-16T22:06:59.891Z,4.30
2022-08-16T22:09:28.308Z,4.30
2022-08-16T22:11:57.737Z,3.97
2022-08-16T22:14:26.093Z,4.85
2022-08-16T22:16:56.079Z,4.50
2022-08-16T22:19:24.991Z,4.55
2022-08-16T22:21:53.626Z,4.95
2022-08-16T22:24:21.990Z,5.05
2022-08-16T22:26:50.387Z,4.90
2022-08-16T22:29:19.217Z,4.53
2022-08-16T22:31:47.842Z,4.85
2022-08-16T22:34:17.625Z,4.88
2022-08-16T22:36:46.249Z,5.07
2022-08-16T22:39:17.512Z,4.55
2022-08-16T22:41:49.692Z,5.35
2022-08-16T22:44:18.885Z,5.15
2022-08-16T22:46:47.256Z,5.30
2022-08-16T22:49:17.053Z,4.80
2022-08-16T22:51:45.424Z,5.63
2022-08-16T22:54:45.765Z,5.03
2022-08-16T22:57:02.217Z,5.30
2022-08-16T22:59:32.062Z,5.75
2022-08-16T23:02:00.916Z,4.70
2022-08-16T23:04:30.960Z,5.22
2022-08-16T23:06:59.507Z,4.80
2022-08-16T23:09:27.981Z,5.53
2022-08-16T23:11:56.396Z,5.28
2022-08-16T23:14:24.862Z,5.35
2022-08-16T23:16:53.285Z,5.38
2022-08-16T23:19:21.717Z,5.32
2022-08-16T23:21:51.870Z,5.00
2022-08-16T23:24:21.148Z,5.28
2022-08-16T23:26:49.880Z,4.97
2022-08-16T23:29:23.443Z,4.95
2022-08-16T23:31:54.740Z,5.28
2022-08-16T23:34:23.189Z,5.60
2022-08-16T23:36:53.077Z,5.55
2022-08-16T23:39:21.458Z,5.45
2022-08-16T23:41:49.847Z,12.27
2022-08-16T23:44:56.818Z,7.43
2022-08-16T23:47:07.072Z,5.65
2022-08-16T23:49:59.359Z,5.50
2022-08-16T23:52:40.496Z,5.57
2022-08-16T23:55:16.910Z,5.32
2022-08-16T23:57:45.552Z,5.75
